sensor_id;sensor_type;location;lat;lon;timestamp;P1;durP1;ratioP1;P2;durP2;ratioP2
62903;SDS011;49000;50.698;13.322;2023-04-03T00:01:00;4.13;;;1.50;;
62903;SDS011;49000;50.698;13.322;2023-04-03T00:03:27;4.83;;;1.67;;
62903;SDS011;49000;50.698;13.322;2023-04-03T00:05:52;4.13;;;1.57;;
62903;SDS011;49000;50.698;13.322;2023-04-03T00:08:18;4.77;;;1.50;;
62903;SDS011;49000;50.698;13.322;2023-04-03T00:10:45;3.13;;;1.37;;
62903;SDS011;49000;50.698;13.322;2023-04-03T00:13:10;2.90;;;1.40;;
62903;SDS011;49000;50.698;13.322;2023-04-03T00:15:36;4.43;;;1.30;;
62903;SDS011;49000;50.698;13.322;2023-04-03T00:18:02;4.10;;;1.60;;
62903;SDS011;49000;50.698;13.322;2023-04-03T00:20:28;2.80;;;1.37;;
62903;SDS011;49000;50.698;13.322;2023-04-03T00:22:54;4.90;;;1.37;;
62903;SDS011;49000;50.698;13.322;2023-04-03T00:25:20;3.27;;;1.50;;
62903;SDS011;49000;50.698;13.322;2023-04-03T00:27:46;4.80;;;1.60;;
62903;SDS011;49000;50.698;13.322;2023-04-03T00:30:13;4.30;;;1.63;;
62903;SDS011;49000;50.698;13.322;2023-04-03T00:32:40;5.70;;;1.40;;
62903;SDS011;49000;50.698;13.322;2023-04-03T00:35:06;6.10;;;1.27;;
62903;SDS011;49000;50.698;13.322;2023-04-03T00:37:32;2.87;;;1.20;;
62903;SDS011;49000;50.698;13.322;2023-04-03T00:39:58;3.20;;;1.30;;
62903;SDS011;49000;50.698;13.322;2023-04-03T00:42:23;5.07;;;1.60;;
62903;SDS011;49000;50.698;13.322;2023-04-03T00:47:21;2.00;;;1.27;;
62903;SDS011;49000;50.698;13.322;2023-04-03T00:49:47;7.23;;;1.97;;
62903;SDS011;49000;50.698;13.322;2023-04-03T00:52:15;6.07;;;1.63;;
62903;SDS011;49000;50.698;13.322;2023-04-03T00:54:42;4.93;;;1.70;;
62903;SDS011;49000;50.698;13.322;2023-04-03T00:57:10;3.53;;;1.50;;
62903;SDS011;49000;50.698;13.322;2023-04-03T00:59:38;4.80;;;1.57;;
62903;SDS011;49000;50.698;13.322;2023-04-03T01:02:09;7.53;;;2.17;;
62903;SDS011;49000;50.698;13.322;2023-04-03T01:04:37;3.93;;;1.67;;
62903;SDS011;49000;50.698;13.322;2023-04-03T01:07:05;5.37;;;1.57;;
62903;SDS011;49000;50.698;13.322;2023-04-03T01:09:34;6.30;;;1.70;;
62903;SDS011;49000;50.698;13.322;2023-04-03T01:12:13;4.97;;;1.63;;
62903;SDS011;49000;50.698;13.322;2023-04-03T01:14:41;4.83;;;1.30;;
62903;SDS011;49000;50.698;13.322;2023-04-03T01:20:24;4.00;;;1.73;;
62903;SDS011;49000;50.698;13.322;2023-04-03T01:25:44;7.33;;;1.50;;
62903;SDS011;49000;50.698;13.322;2023-04-03T01:28:19;2.90;;;1.20;;
62903;SDS011;49000;50.698;13.322;2023-04-03T01:33:33;4.87;;;1.20;;
62903;SDS011;49000;50.698;13.322;2023-04-03T01:36:00;3.33;;;1.50;;
62903;SDS011;49000;50.698;13.322;2023-04-03T01:38:26;2.73;;;1.40;;
62903;SDS011;49000;50.698;13.322;2023-04-03T01:40:51;4.37;;;1.33;;
62903;SDS011;49000;50.698;13.322;2023-04-03T01:43:17;5.87;;;1.40;;
62903;SDS011;49000;50.698;13.322;2023-04-03T01:45:43;5.67;;;1.60;;
62903;SDS011;49000;50.698;13.322;2023-04-03T01:48:08;2.87;;;1.10;;
62903;SDS011;49000;50.698;13.322;2023-04-03T01:50:34;3.37;;;1.20;;
62903;SDS011;49000;50.698;13.322;2023-04-03T01:53:00;5.50;;;1.03;;
62903;SDS011;49000;50.698;13.322;2023-04-03T01:55:25;3.20;;;1.23;;
62903;SDS011;49000;50.698;13.322;2023-04-03T01:57:51;7.67;;;1.47;;
62903;SDS011;49000;50.698;13.322;2023-04-03T02:00:16;5.43;;;1.37;;
62903;SDS011;49000;50.698;13.322;2023-04-03T02:02:42;2.63;;;1.13;;
62903;SDS011;49000;50.698;13.322;2023-04-03T02:05:07;5.93;;;1.60;;
62903;SDS011;49000;50.698;13.322;2023-04-03T02:07:33;2.83;;;1.10;;
62903;SDS011;49000;50.698;13.322;2023-04-03T02:09:59;3.07;;;1.27;;
62903;SDS011;49000;50.698;13.322;2023-04-03T02:12:24;5.77;;;1.20;;
62903;SDS011;49000;50.698;13.322;2023-04-03T02:14:50;3.10;;;1.30;;
62903;SDS011;49000;50.698;13.322;2023-04-03T02:17:15;2.60;;;1.40;;
62903;SDS011;49000;50.698;13.322;2023-04-03T02:19:41;4.30;;;1.23;;
62903;SDS011;49000;50.698;13.322;2023-04-03T02:22:06;3.40;;;1.30;;
62903;SDS011;49000;50.698;13.322;2023-04-03T02:24:32;8.23;;;1.20;;
62903;SDS011;49000;50.698;13.322;2023-04-03T02:26:57;3.27;;;1.10;;
62903;SDS011;49000;50.698;13.322;2023-04-03T02:29:23;4.63;;;1.40;;
62903;SDS011;49000;50.698;13.322;2023-04-03T02:31:49;4.73;;;1.20;;
62903;SDS011;49000;50.698;13.322;2023-04-03T02:34:15;4.87;;;1.60;;
62903;SDS011;49000;50.698;13.322;2023-04-03T02:36:41;8.43;;;1.40;;
62903;SDS011;49000;50.698;13.322;2023-04-03T02:39:06;3.60;;;1.27;;
62903;SDS011;49000;50.698;13.322;2023-04-03T02:41:33;3.50;;;1.00;;
62903;SDS011;49000;50.698;13.322;2023-04-03T02:44:00;4.67;;;1.40;;
62903;SDS011;49000;50.698;13.322;2023-04-03T02:46:27;3.23;;;1.30;;
62903;SDS011;49000;50.698;13.322;2023-04-03T02:48:52;6.00;;;1.17;;
62903;SDS011;49000;50.698;13.322;2023-04-03T02:51:18;4.00;;;1.50;;
62903;SDS011;49000;50.698;13.322;2023-04-03T02:53:44;4.63;;;1.40;;
62903;SDS011;49000;50.698;13.322;2023-04-03T02:56:09;4.83;;;1.20;;
62903;SDS011;49000;50.698;13.322;2023-04-03T02:58:35;3.37;;;1.30;;
62903;SDS011;49000;50.698;13.322;2023-04-03T03:01:00;3.20;;;1.10;;
62903;SDS011;49000;50.698;13.322;2023-04-03T03:03:26;3.67;;;1.37;;
62903;SDS011;49000;50.698;13.322;2023-04-03T03:06:05;5.10;;;1.37;;
62903;SDS011;49000;50.698;13.322;2023-04-03T03:08:32;4.67;;;1.40;;
62903;SDS011;49000;50.698;13.322;2023-04-03T03:10:58;2.87;;;1.50;;
62903;SDS011;49000;50.698;13.322;2023-04-03T03:13:24;3.47;;;1.03;;
62903;SDS011;49000;50.698;13.322;2023-04-03T03:15:50;5.53;;;1.20;;
62903;SDS011;49000;50.698;13.322;2023-04-03T03:18:16;3.73;;;1.30;;
62903;SDS011;49000;50.698;13.322;2023-04-03T03:20:42;5.00;;;1.50;;
62903;SDS011;49000;50.698;13.322;2023-04-03T03:23:08;3.43;;;1.43;;
62903;SDS011;49000;50.698;13.322;2023-04-03T03:25:33;3.10;;;1.30;;
62903;SDS011;49000;50.698;13.322;2023-04-03T03:28:03;5.27;;;1.40;;
62903;SDS011;49000;50.698;13.322;2023-04-03T03:30:28;3.67;;;1.40;;
62903;SDS011;49000;50.698;13.322;2023-04-03T03:32:54;6.57;;;1.63;;
62903;SDS011;49000;50.698;13.322;2023-04-03T03:35:19;5.03;;;1.43;;
62903;SDS011;49000;50.698;13.322;2023-04-03T03:37:45;3.10;;;1.57;;
62903;SDS011;49000;50.698;13.322;2023-04-03T03:40:10;3.60;;;1.53;;
62903;SDS011;49000;50.698;13.322;2023-04-03T03:42:37;5.13;;;1.50;;
62903;SDS011;49000;50.698;13.322;2023-04-03T03:45:03;5.20;;;1.33;;
62903;SDS011;49000;50.698;13.322;2023-04-03T03:47:29;3.20;;;1.30;;
62903;SDS011;49000;50.698;13.322;2023-04-03T03:49:55;4.40;;;1.43;;
62903;SDS011;49000;50.698;13.322;2023-04-03T03:52:20;5.27;;;1.63;;
62903;SDS011;49000;50.698;13.322;2023-04-03T03:54:45;5.67;;;1.70;;
62903;SDS011;49000;50.698;13.322;2023-04-03T03:57:11;5.97;;;1.37;;
62903;SDS011;49000;50.698;13.322;2023-04-03T03:59:36;4.80;;;1.87;;
62903;SDS011;49000;50.698;13.322;2023-04-03T04:02:02;2.93;;;1.40;;
62903;SDS011;49000;50.698;13.322;2023-04-03T04:04:28;2.63;;;1.23;;
62903;SDS011;49000;50.698;13.322;2023-04-03T04:06:53;6.33;;;1.80;;
62903;SDS011;49000;50.698;13.322;2023-04-03T04:09:19;2.80;;;1.23;;
62903;SDS011;49000;50.698;13.322;2023-04-03T04:11:45;7.17;;;1.40;;
62903;SDS011;49000;50.698;13.322;2023-04-03T04:14:10;4.40;;;1.30;;
62903;SDS011;49000;50.698;13.322;2023-04-03T04:16:37;4.63;;;1.60;;
62903;SDS011;49000;50.698;13.322;2023-04-03T04:19:02;5.30;;;1.67;;
62903;SDS011;49000;50.698;13.322;2023-04-03T04:21:28;4.07;;;1.53;;
62903;SDS011;49000;50.698;13.322;2023-04-03T04:23:53;5.00;;;1.63;;
62903;SDS011;49000;50.698;13.322;2023-04-03T04:26:20;6.70;;;1.50;;
62903;SDS011;49000;50.698;13.322;2023-04-03T04:28:46;4.50;;;1.37;;
62903;SDS011;49000;50.698;13.322;2023-04-03T04:31:11;5.53;;;1.50;;
62903;SDS011;49000;50.698;13.322;2023-04-03T04:33:37;3.37;;;1.50;;
62903;SDS011;49000;50.698;13.322;2023-04-03T04:36:02;3.83;;;1.30;;
62903;SDS011;49000;50.698;13.322;2023-04-03T04:38:28;5.87;;;1.77;;
62903;SDS011;49000;50.698;13.322;2023-04-03T04:40:53;4.57;;;1.70;;
62903;SDS011;49000;50.698;13.322;2023-04-03T04:43:19;4.83;;;1.83;;
62903;SDS011;49000;50.698;13.322;2023-04-03T04:45:44;4.50;;;1.90;;
62903;SDS011;49000;50.698;13.322;2023-04-03T04:48:10;3.67;;;1.97;;
62903;SDS011;49000;50.698;13.322;2023-04-03T04:50:35;4.63;;;2.20;;
62903;SDS011;49000;50.698;13.322;2023-04-03T04:53:01;5.20;;;2.03;;
62903;SDS011;49000;50.698;13.322;2023-04-03T04:55:26;4.57;;;2.23;;
62903;SDS011;49000;50.698;13.322;2023-04-03T04:57:52;7.97;;;2.40;;
62903;SDS011;49000;50.698;13.322;2023-04-03T05:00:17;3.93;;;2.00;;
62903;SDS011;49000;50.698;13.322;2023-04-03T05:02:43;5.90;;;2.20;;
62903;SDS011;49000;50.698;13.322;2023-04-03T05:05:09;5.50;;;2.07;;
62903;SDS011;49000;50.698;13.322;2023-04-03T05:07:34;7.20;;;2.43;;
62903;SDS011;49000;50.698;13.322;2023-04-03T05:10:00;3.77;;;2.00;;
62903;SDS011;49000;50.698;13.322;2023-04-03T05:12:27;5.80;;;2.17;;
62903;SDS011;49000;50.698;13.322;2023-04-03T05:14:53;4.30;;;2.13;;
62903;SDS011;49000;50.698;13.322;2023-04-03T05:17:18;5.73;;;2.03;;
62903;SDS011;49000;50.698;13.322;2023-04-03T05:19:44;6.80;;;2.30;;
62903;SDS011;49000;50.698;13.322;2023-04-03T05:22:09;5.47;;;1.80;;
62903;SDS011;49000;50.698;13.322;2023-04-03T05:24:35;4.37;;;2.17;;
62903;SDS011;49000;50.698;13.322;2023-04-03T05:27:00;4.17;;;2.17;;
62903;SDS011;49000;50.698;13.322;2023-04-03T05:29:26;4.37;;;2.07;;
62903;SDS011;49000;50.698;13.322;2023-04-03T05:31:51;3.67;;;2.17;;
62903;SDS011;49000;50.698;13.322;2023-04-03T05:34:17;3.90;;;1.90;;
62903;SDS011;49000;50.698;13.322;2023-04-03T05:36:43;4.47;;;1.80;;
62903;SDS011;49000;50.698;13.322;2023-04-03T05:39:09;4.77;;;2.40;;
62903;SDS011;49000;50.698;13.322;2023-04-03T05:41:34;5.00;;;2.10;;
62903;SDS011;49000;50.698;13.322;2023-04-03T05:44:00;4.60;;;1.87;;
62903;SDS011;49000;50.698;13.322;2023-04-03T05:46:25;5.83;;;1.97;;
62903;SDS011;49000;50.698;13.322;2023-04-03T05:48:51;9.37;;;2.80;;
62903;SDS011;49000;50.698;13.322;2023-04-03T05:51:18;6.73;;;1.90;;
62903;SDS011;49000;50.698;13.322;2023-04-03T05:53:47;6.87;;;2.10;;
62903;SDS011;49000;50.698;13.322;2023-04-03T05:56:14;6.17;;;2.20;;
62903;SDS011;49000;50.698;13.322;2023-04-03T05:58:40;3.00;;;1.80;;
62903;SDS011;49000;50.698;13.322;2023-04-03T06:01:05;3.73;;;1.70;;
62903;SDS011;49000;50.698;13.322;2023-04-03T06:03:31;5.43;;;1.80;;
62903;SDS011;49000;50.698;13.322;2023-04-03T06:05:57;2.63;;;1.73;;
62903;SDS011;49000;50.698;13.322;2023-04-03T06:08:22;10.90;;;2.47;;
62903;SDS011;49000;50.698;13.322;2023-04-03T06:10:48;5.17;;;1.87;;
62903;SDS011;49000;50.698;13.322;2023-04-03T06:13:15;4.83;;;2.23;;
62903;SDS011;49000;50.698;13.322;2023-04-03T06:15:40;2.90;;;1.67;;
62903;SDS011;49000;50.698;13.322;2023-04-03T06:18:06;4.97;;;1.97;;
62903;SDS011;49000;50.698;13.322;2023-04-03T06:20:33;3.67;;;2.10;;
62903;SDS011;49000;50.698;13.322;2023-04-03T06:22:58;4.43;;;1.93;;
62903;SDS011;49000;50.698;13.322;2023-04-03T06:25:23;5.23;;;1.80;;
62903;SDS011;49000;50.698;13.322;2023-04-03T06:27:49;5.00;;;1.87;;
62903;SDS011;49000;50.698;13.322;2023-04-03T06:30:14;5.60;;;2.20;;
62903;SDS011;49000;50.698;13.322;2023-04-03T06:32:40;3.43;;;1.87;;
62903;SDS011;49000;50.698;13.322;2023-04-03T06:35:06;4.37;;;1.60;;
62903;SDS011;49000;50.698;13.322;2023-04-03T06:37:32;3.70;;;1.90;;
62903;SDS011;49000;50.698;13.322;2023-04-03T06:39:58;4.47;;;1.90;;
62903;SDS011;49000;50.698;13.322;2023-04-03T06:42:25;3.77;;;1.87;;
62903;SDS011;49000;50.698;13.322;2023-04-03T06:44:50;3.63;;;1.70;;
62903;SDS011;49000;50.698;13.322;2023-04-03T06:47:16;4.57;;;1.70;;
62903;SDS011;49000;50.698;13.322;2023-04-03T06:49:42;3.53;;;1.47;;
62903;SDS011;49000;50.698;13.322;2023-04-03T06:52:08;5.57;;;1.57;;
62903;SDS011;49000;50.698;13.322;2023-04-03T06:54:34;3.43;;;1.73;;
62903;SDS011;49000;50.698;13.322;2023-04-03T06:57:00;5.50;;;1.40;;
62903;SDS011;49000;50.698;13.322;2023-04-03T06:59:26;5.60;;;1.50;;
62903;SDS011;49000;50.698;13.322;2023-04-03T07:01:52;5.23;;;1.80;;
62903;SDS011;49000;50.698;13.322;2023-04-03T07:04:17;4.57;;;1.67;;
62903;SDS011;49000;50.698;13.322;2023-04-03T07:06:45;7.40;;;1.90;;
62903;SDS011;49000;50.698;13.322;2023-04-03T07:09:12;3.93;;;1.93;;
62903;SDS011;49000;50.698;13.322;2023-04-03T07:11:38;4.20;;;1.90;;
62903;SDS011;49000;50.698;13.322;2023-04-03T07:14:03;4.83;;;2.10;;
62903;SDS011;49000;50.698;13.322;2023-04-03T07:16:30;4.73;;;1.90;;
62903;SDS011;49000;50.698;13.322;2023-04-03T07:18:56;3.50;;;1.77;;
62903;SDS011;49000;50.698;13.322;2023-04-03T07:21:22;4.33;;;1.70;;
62903;SDS011;49000;50.698;13.322;2023-04-03T07:23:47;2.63;;;1.30;;
62903;SDS011;49000;50.698;13.322;2023-04-03T07:26:13;5.13;;;1.70;;
62903;SDS011;49000;50.698;13.322;2023-04-03T07:28:38;4.53;;;1.50;;
62903;SDS011;49000;50.698;13.322;2023-04-03T07:31:06;3.03;;;1.70;;
62903;SDS011;49000;50.698;13.322;2023-04-03T07:33:36;4.47;;;1.83;;
62903;SDS011;49000;50.698;13.322;2023-04-03T07:36:02;2.23;;;1.43;;
62903;SDS011;49000;50.698;13.322;2023-04-03T07:38:29;2.53;;;1.60;;
62903;SDS011;49000;50.698;13.322;2023-04-03T07:40:54;3.80;;;1.57;;
62903;SDS011;49000;50.698;13.322;2023-04-03T07:43:20;3.33;;;1.70;;
62903;SDS011;49000;50.698;13.322;2023-04-03T07:45:47;4.17;;;1.60;;
62903;SDS011;49000;50.698;13.322;2023-04-03T07:48:15;4.20;;;1.47;;
62903;SDS011;49000;50.698;13.322;2023-04-03T07:50:45;3.07;;;1.50;;
62903;SDS011;49000;50.698;13.322;2023-04-03T07:53:11;4.47;;;1.90;;
62903;SDS011;49000;50.698;13.322;2023-04-03T07:55:36;4.73;;;1.50;;
62903;SDS011;49000;50.698;13.322;2023-04-03T07:58:08;2.83;;;1.80;;
62903;SDS011;49000;50.698;13.322;2023-04-03T08:00:34;4.90;;;1.70;;
62903;SDS011;49000;50.698;13.322;2023-04-03T08:03:00;3.70;;;1.57;;
62903;SDS011;49000;50.698;13.322;2023-04-03T08:05:26;3.40;;;1.70;;
62903;SDS011;49000;50.698;13.322;2023-04-03T08:07:51;4.17;;;1.37;;
62903;SDS011;49000;50.698;13.322;2023-04-03T08:10:17;3.70;;;1.63;;
62903;SDS011;49000;50.698;13.322;2023-04-03T08:12:45;3.73;;;1.50;;
62903;SDS011;49000;50.698;13.322;2023-04-03T08:15:13;4.17;;;1.50;;
62903;SDS011;49000;50.698;13.322;2023-04-03T08:17:38;3.93;;;1.67;;
62903;SDS011;49000;50.698;13.322;2023-04-03T08:20:04;3.57;;;1.43;;
62903;SDS011;49000;50.698;13.322;2023-04-03T08:22:31;3.67;;;1.73;;
62903;SDS011;49000;50.698;13.322;2023-04-03T08:24:57;3.57;;;1.40;;
62903;SDS011;49000;50.698;13.322;2023-04-03T08:27:23;3.97;;;1.60;;
62903;SDS011;49000;50.698;13.322;2023-04-03T08:29:48;3.77;;;1.60;;
62903;SDS011;49000;50.698;13.322;2023-04-03T08:32:14;5.13;;;1.63;;
62903;SDS011;49000;50.698;13.322;2023-04-03T08:34:39;4.03;;;1.60;;
62903;SDS011;49000;50.698;13.322;2023-04-03T08:37:05;2.80;;;1.30;;
62903;SDS011;49000;50.698;13.322;2023-04-03T08:39:31;2.77;;;1.37;;
62903;SDS011;49000;50.698;13.322;2023-04-03T08:41:57;2.87;;;1.40;;
62903;SDS011;49000;50.698;13.322;2023-04-03T08:44:38;2.73;;;1.30;;
62903;SDS011;49000;50.698;13.322;2023-04-03T08:49:55;3.33;;;1.33;;
62903;SDS011;49000;50.698;13.322;2023-04-03T08:52:36;5.93;;;1.60;;
62903;SDS011;49000;50.698;13.322;2023-04-03T08:55:20;8.00;;;1.60;;
62903;SDS011;49000;50.698;13.322;2023-04-03T08:58:11;4.20;;;1.33;;
62903;SDS011;49000;50.698;13.322;2023-04-03T09:00:44;3.97;;;1.40;;
62903;SDS011;49000;50.698;13.322;2023-04-03T09:03:16;5.00;;;1.50;;
62903;SDS011;49000;50.698;13.322;2023-04-03T09:05:48;3.40;;;2.17;;
62903;SDS011;49000;50.698;13.322;2023-04-03T09:08:46;3.83;;;1.73;;
62903;SDS011;49000;50.698;13.322;2023-04-03T09:11:44;4.37;;;1.70;;
62903;SDS011;49000;50.698;13.322;2023-04-03T09:14:34;5.20;;;1.80;;
62903;SDS011;49000;50.698;13.322;2023-04-03T09:17:15;3.67;;;1.60;;
62903;SDS011;49000;50.698;13.322;2023-04-03T09:22:43;3.37;;;1.90;;
62903;SDS011;49000;50.698;13.322;2023-04-03T09:25:13;5.27;;;1.80;;
62903;SDS011;49000;50.698;13.322;2023-04-03T09:27:46;4.03;;;1.53;;
62903;SDS011;49000;50.698;13.322;2023-04-03T09:30:15;4.23;;;2.13;;
62903;SDS011;49000;50.698;13.322;2023-04-03T09:32:49;3.60;;;1.87;;
62903;SDS011;49000;50.698;13.322;2023-04-03T09:35:18;3.93;;;1.80;;
62903;SDS011;49000;50.698;13.322;2023-04-03T09:38:00;2.13;;;1.57;;
62903;SDS011;49000;50.698;13.322;2023-04-03T09:40:40;3.77;;;1.73;;
62903;SDS011;49000;50.698;13.322;2023-04-03T09:43:19;2.73;;;1.50;;
62903;SDS011;49000;50.698;13.322;2023-04-03T09:45:56;3.73;;;1.70;;
62903;SDS011;49000;50.698;13.322;2023-04-03T09:48:49;3.57;;;1.47;;
62903;SDS011;49000;50.698;13.322;2023-04-03T09:51:26;2.33;;;1.50;;
62903;SDS011;49000;50.698;13.322;2023-04-03T09:53:53;4.43;;;1.43;;
62903;SDS011;49000;50.698;13.322;2023-04-03T09:56:21;2.93;;;1.60;;
62903;SDS011;49000;50.698;13.322;2023-04-03T10:01:26;3.63;;;1.70;;
62903;SDS011;49000;50.698;13.322;2023-04-03T10:06:37;3.37;;;1.47;;
62903;SDS011;49000;50.698;13.322;2023-04-03T10:09:16;4.07;;;1.70;;
62903;SDS011;49000;50.698;13.322;2023-04-03T10:14:29;4.27;;;1.93;;
62903;SDS011;49000;50.698;13.322;2023-04-03T10:19:44;3.07;;;1.63;;
62903;SDS011;49000;50.698;13.322;2023-04-03T10:22:41;3.97;;;1.50;;
62903;SDS011;49000;50.698;13.322;2023-04-03T10:25:34;4.27;;;1.80;;
62903;SDS011;49000;50.698;13.322;2023-04-03T10:34:11;4.90;;;2.20;;
62903;SDS011;49000;50.698;13.322;2023-04-03T10:36:50;2.63;;;1.40;;
62903;SDS011;49000;50.698;13.322;2023-04-03T10:39:31;2.37;;;1.70;;
62903;SDS011;49000;50.698;13.322;2023-04-03T10:42:03;3.90;;;1.60;;
62903;SDS011;49000;50.698;13.322;2023-04-03T10:47:46;2.10;;;1.80;;
62903;SDS011;49000;50.698;13.322;2023-04-03T10:50:38;3.37;;;1.80;;
62903;SDS011;49000;50.698;13.322;2023-04-03T10:53:59;3.17;;;1.30;;
62903;SDS011;49000;50.698;13.322;2023-04-03T10:56:17;2.83;;;1.30;;
62903;SDS011;49000;50.698;13.322;2023-04-03T10:58:54;2.27;;;1.30;;
62903;SDS011;49000;50.698;13.322;2023-04-03T11:01:29;3.27;;;1.30;;
62903;SDS011;49000;50.698;13.322;2023-04-03T11:03:59;2.20;;;1.30;;
62903;SDS011;49000;50.698;13.322;2023-04-03T11:06:31;2.07;;;1.30;;
62903;SDS011;49000;50.698;13.322;2023-04-03T11:09:28;3.97;;;1.47;;
62903;SDS011;49000;50.698;13.322;2023-04-03T11:12:00;3.47;;;1.30;;
62903;SDS011;49000;50.698;13.322;2023-04-03T11:14:35;3.67;;;1.30;;
62903;SDS011;49000;50.698;13.322;2023-04-03T11:22:35;3.03;;;1.30;;
62903;SDS011;49000;50.698;13.322;2023-04-03T11:27:42;2.17;;;1.40;;
62903;SDS011;49000;50.698;13.322;2023-04-03T11:30:18;2.67;;;1.60;;
62903;SDS011;49000;50.698;13.322;2023-04-03T11:32:56;4.00;;;1.50;;
62903;SDS011;49000;50.698;13.322;2023-04-03T11:35:31;3.87;;;1.23;;
62903;SDS011;49000;50.698;13.322;2023-04-03T11:37:58;4.60;;;1.63;;
62903;SDS011;49000;50.698;13.322;2023-04-03T11:40:34;5.50;;;2.50;;
62903;SDS011;49000;50.698;13.322;2023-04-03T11:43:04;3.50;;;1.97;;
62903;SDS011;49000;50.698;13.322;2023-04-03T11:50:44;1.93;;;1.20;;
62903;SDS011;49000;50.698;13.322;2023-04-03T11:58:14;2.53;;;1.40;;
62903;SDS011;49000;50.698;13.322;2023-04-03T12:05:52;3.80;;;3.40;;
62903;SDS011;49000;50.698;13.322;2023-04-03T12:08:29;3.63;;;1.57;;
62903;SDS011;49000;50.698;13.322;2023-04-03T12:13:33;2.90;;;1.23;;
62903;SDS011;49000;50.698;13.322;2023-04-03T12:16:23;1.67;;;1.10;;
62903;SDS011;49000;50.698;13.322;2023-04-03T12:19:04;5.33;;;1.60;;
62903;SDS011;49000;50.698;13.322;2023-04-03T12:34:43;3.20;;;1.20;;
62903;SDS011;49000;50.698;13.322;2023-04-03T12:37:29;3.10;;;1.27;;
62903;SDS011;49000;50.698;13.322;2023-04-03T12:43:09;4.23;;;1.30;;
62903;SDS011;49000;50.698;13.322;2023-04-03T12:46:03;4.33;;;1.20;;
62903;SDS011;49000;50.698;13.322;2023-04-03T12:51:37;3.27;;;1.13;;
62903;SDS011;49000;50.698;13.322;2023-04-03T12:59:37;3.47;;;1.33;;
62903;SDS011;49000;50.698;13.322;2023-04-03T13:02:10;3.87;;;1.30;;
62903;SDS011;49000;50.698;13.322;2023-04-03T13:04:46;2.67;;;1.10;;
62903;SDS011;49000;50.698;13.322;2023-04-03T13:07:25;3.67;;;0.93;;
62903;SDS011;49000;50.698;13.322;2023-04-03T13:09:57;1.70;;;0.80;;
62903;SDS011;49000;50.698;13.322;2023-04-03T13:12:24;3.17;;;1.10;;
62903;SDS011;49000;50.698;13.322;2023-04-03T13:14:55;2.57;;;1.00;;
62903;SDS011;49000;50.698;13.322;2023-04-03T13:17:23;4.73;;;1.13;;
62903;SDS011;49000;50.698;13.322;2023-04-03T13:19:50;1.47;;;1.00;;
62903;SDS011;49000;50.698;13.322;2023-04-03T13:24:51;3.70;;;1.00;;
62903;SDS011;49000;50.698;13.322;2023-04-03T13:27:19;2.37;;;0.83;;
62903;SDS011;49000;50.698;13.322;2023-04-03T13:29:48;3.13;;;1.50;;
62903;SDS011;49000;50.698;13.322;2023-04-03T13:32:18;2.20;;;0.93;;
62903;SDS011;49000;50.698;13.322;2023-04-03T13:34:46;1.87;;;1.20;;
62903;SDS011;49000;50.698;13.322;2023-04-03T13:37:25;2.00;;;1.00;;
62903;SDS011;49000;50.698;13.322;2023-04-03T13:39:57;4.03;;;1.23;;
62903;SDS011;49000;50.698;13.322;2023-04-03T13:42:33;3.10;;;1.13;;
62903;SDS011;49000;50.698;13.322;2023-04-03T13:47:51;2.47;;;1.20;;
62903;SDS011;49000;50.698;13.322;2023-04-03T13:50:21;3.90;;;1.03;;
62903;SDS011;49000;50.698;13.322;2023-04-03T13:53:32;2.80;;;1.20;;
62903;SDS011;49000;50.698;13.322;2023-04-03T13:55:59;2.73;;;1.10;;
62903;SDS011;49000;50.698;13.322;2023-04-03T13:58:29;1.53;;;0.83;;
62903;SDS011;49000;50.698;13.322;2023-04-03T14:03:46;1.80;;;0.90;;
62903;SDS011;49000;50.698;13.322;2023-04-03T14:06:16;2.47;;;1.20;;
62903;SDS011;49000;50.698;13.322;2023-04-03T14:08:43;3.30;;;1.10;;
62903;SDS011;49000;50.698;13.322;2023-04-03T14:11:11;4.70;;;1.13;;
62903;SDS011;49000;50.698;13.322;2023-04-03T14:13:39;1.60;;;0.80;;
62903;SDS011;49000;50.698;13.322;2023-04-03T14:16:05;1.70;;;1.00;;
62903;SDS011;49000;50.698;13.322;2023-04-03T14:18:31;1.70;;;0.83;;
62903;SDS011;49000;50.698;13.322;2023-04-03T14:20:56;3.23;;;1.10;;
62903;SDS011;49000;50.698;13.322;2023-04-03T14:23:23;3.90;;;1.10;;
62903;SDS011;49000;50.698;13.322;2023-04-03T14:25:48;2.03;;;1.20;;
62903;SDS011;49000;50.698;13.322;2023-04-03T14:28:16;4.20;;;1.30;;
62903;SDS011;49000;50.698;13.322;2023-04-03T14:30:47;2.60;;;1.10;;
62903;SDS011;49000;50.698;13.322;2023-04-03T14:33:16;1.97;;;1.33;;
62903;SDS011;49000;50.698;13.322;2023-04-03T14:35:43;3.53;;;1.10;;
62903;SDS011;49000;50.698;13.322;2023-04-03T14:38:12;3.90;;;1.10;;
62903;SDS011;49000;50.698;13.322;2023-04-03T14:40:47;3.43;;;1.20;;
62903;SDS011;49000;50.698;13.322;2023-04-03T14:43:12;2.20;;;1.10;;
62903;SDS011;49000;50.698;13.322;2023-04-03T14:45:38;3.07;;;1.07;;
62903;SDS011;49000;50.698;13.322;2023-04-03T14:48:03;2.37;;;1.20;;
62903;SDS011;49000;50.698;13.322;2023-04-03T14:50:31;2.77;;;1.13;;
62903;SDS011;49000;50.698;13.322;2023-04-03T14:52:57;3.23;;;0.90;;
62903;SDS011;49000;50.698;13.322;2023-04-03T14:55:24;2.27;;;0.90;;
62903;SDS011;49000;50.698;13.322;2023-04-03T14:57:51;1.57;;;1.10;;
62903;SDS011;49000;50.698;13.322;2023-04-03T15:00:18;2.40;;;0.97;;
62903;SDS011;49000;50.698;13.322;2023-04-03T15:02:45;3.53;;;1.50;;
62903;SDS011;49000;50.698;13.322;2023-04-03T15:05:12;2.43;;;1.17;;
62903;SDS011;49000;50.698;13.322;2023-04-03T15:07:40;3.33;;;1.20;;
62903;SDS011;49000;50.698;13.322;2023-04-03T15:10:20;2.43;;;1.20;;
62903;SDS011;49000;50.698;13.322;2023-04-03T15:12:48;1.90;;;1.00;;
62903;SDS011;49000;50.698;13.322;2023-04-03T15:15:15;3.00;;;1.13;;
62903;SDS011;49000;50.698;13.322;2023-04-03T15:17:42;4.00;;;1.37;;
62903;SDS011;49000;50.698;13.322;2023-04-03T15:20:12;3.97;;;1.00;;
62903;SDS011;49000;50.698;13.322;2023-04-03T15:22:48;5.43;;;1.50;;
62903;SDS011;49000;50.698;13.322;2023-04-03T15:25:14;2.77;;;1.23;;
62903;SDS011;49000;50.698;13.322;2023-04-03T15:27:41;5.70;;;1.27;;
62903;SDS011;49000;50.698;13.322;2023-04-03T15:30:08;1.63;;;0.90;;
62903;SDS011;49000;50.698;13.322;2023-04-03T15:32:38;3.07;;;1.00;;
62903;SDS011;49000;50.698;13.322;2023-04-03T15:35:03;2.83;;;1.10;;
62903;SDS011;49000;50.698;13.322;2023-04-03T15:37:29;4.60;;;1.10;;
62903;SDS011;49000;50.698;13.322;2023-04-03T15:39:55;3.20;;;1.20;;
62903;SDS011;49000;50.698;13.322;2023-04-03T15:42:20;3.33;;;1.00;;
62903;SDS011;49000;50.698;13.322;2023-04-03T15:44:46;2.77;;;1.10;;
62903;SDS011;49000;50.698;13.322;2023-04-03T15:47:11;3.40;;;1.00;;
62903;SDS011;49000;50.698;13.322;2023-04-03T15:49:37;2.90;;;1.00;;
62903;SDS011;49000;50.698;13.322;2023-04-03T15:52:03;2.07;;;1.23;;
62903;SDS011;49000;50.698;13.322;2023-04-03T15:54:28;3.40;;;1.20;;
62903;SDS011;49000;50.698;13.322;2023-04-03T15:56:54;3.43;;;1.07;;
62903;SDS011;49000;50.698;13.322;2023-04-03T15:59:20;4.53;;;1.27;;
62903;SDS011;49000;50.698;13.322;2023-04-03T16:01:46;3.47;;;0.93;;
62903;SDS011;49000;50.698;13.322;2023-04-03T16:04:12;2.73;;;1.07;;
62903;SDS011;49000;50.698;13.322;2023-04-03T16:06:38;3.70;;;1.20;;
62903;SDS011;49000;50.698;13.322;2023-04-03T16:09:04;2.40;;;1.10;;
62903;SDS011;49000;50.698;13.322;2023-04-03T16:11:29;4.27;;;0.90;;
62903;SDS011;49000;50.698;13.322;2023-04-03T16:13:55;2.20;;;1.03;;
62903;SDS011;49000;50.698;13.322;2023-04-03T16:16:21;3.80;;;1.10;;
62903;SDS011;49000;50.698;13.322;2023-04-03T16:18:48;3.57;;;1.20;;